createdAt,value
2022-12-25T00:00:30.570Z,100504.60
2022-12-25T00:03:24.414Z,100515.40
2022-12-25T00:06:00.818Z,100518.20
2022-12-25T00:08:35.412Z,100524.80
2022-12-25T00:11:13.144Z,100524.40
2022-12-25T00:13:48.333Z,100529.60
2022-12-25T00:16:25.573Z,100536.80
2022-12-25T00:19:01.565Z,100535.20
2022-12-25T00:21:35.302Z,100533.40
2022-12-25T00:24:10.537Z,100533.60
2022-12-25T00:26:44.320Z,100532.40
2022-12-25T00:29:18.739Z,100538.20
2022-12-25T00:31:52.679Z,100543.60
2022-12-25T00:34:27.239Z,100541.80
2022-12-25T00:37:01.069Z,100542.20
2022-12-25T00:39:35.181Z,100545.20
2022-12-25T00:42:23.902Z,100550.00
2022-12-25T00:44:57.589Z,100549.80
2022-12-25T00:47:32.519Z,100559.80
2022-12-25T00:50:08.396Z,100560.20
2022-12-25T00:52:42.502Z,100561.20
2022-12-25T00:55:16.534Z,100559.00
2022-12-25T00:57:50.591Z,100558.40
2022-12-25T01:00:26.349Z,100557.80
2022-12-25T01:03:00.654Z,100561.40
2022-12-25T01:05:36.052Z,100563.20
2022-12-25T01:08:11.081Z,100566.00
2022-12-25T01:10:45.175Z,100567.40
2022-12-25T01:13:19.237Z,100578.20
2022-12-25T01:15:54.604Z,100582.60
2022-12-25T01:18:29.524Z,100589.60
2022-12-25T01:21:09.261Z,100584.80
2022-12-25T01:23:43.679Z,100580.80
2022-12-25T01:26:19.537Z,100588.80
2022-12-25T01:28:54.691Z,100589.40
2022-12-25T01:31:29.358Z,100592.80
2022-12-25T01:34:03.534Z,100594.40
2022-12-25T01:36:37.624Z,100609.80
2022-12-25T01:39:11.942Z,100608.60
2022-12-25T01:41:46.154Z,100613.20
2022-12-25T01:45:10.866Z,100614.20
2022-12-25T01:47:45.060Z,100619.20
2022-12-25T01:50:20.444Z,100618.80
2022-12-25T01:52:55.980Z,100617.20
2022-12-25T01:55:31.645Z,100616.40
2022-12-25T01:58:06.142Z,100620.60
2022-12-25T02:00:39.997Z,100609.80
2022-12-25T02:03:14.903Z,100602.60
2022-12-25T02:05:51.768Z,100608.60
2022-12-25T02:08:27.100Z,100620.60
2022-12-25T02:11:01.821Z,100621.00
2022-12-25T02:13:37.674Z,100617.00
2022-12-25T02:16:22.367Z,100620.00
2022-12-25T02:19:04.488Z,100621.40
2022-12-25T02:22:07.662Z,100624.00
2022-12-25T02:25:05.414Z,100618.60
2022-12-25T02:28:11.149Z,100622.00
2022-12-25T02:30:53.321Z,100635.40
2022-12-25T02:33:54.657Z,100632.20
2022-12-25T02:36:34.414Z,100629.60
2022-12-25T02:39:34.089Z,100632.40
2022-12-25T02:42:15.009Z,100633.40
2022-12-25T02:45:10.353Z,100630.40
2022-12-25T02:48:02.339Z,100637.80
2022-12-25T02:50:54.633Z,100642.00
2022-12-25T02:53:47.215Z,100645.20
2022-12-25T02:56:47.184Z,100653.00
2022-12-25T02:59:52.585Z,100656.40
2022-12-25T03:02:47.535Z,100658.20
2022-12-25T03:05:44.797Z,100665.60
2022-12-25T03:08:27.093Z,100667.20
2022-12-25T03:11:31.420Z,100657.00
2022-12-25T03:14:27.292Z,100657.40
2022-12-25T03:17:03.532Z,100664.40
2022-12-25T03:19:56.473Z,100663.80
2022-12-25T03:22:51.627Z,100661.00
2022-12-25T03:25:43.594Z,100673.40
2022-12-25T03:28:18.024Z,100673.00
2022-12-25T03:31:13.624Z,100679.20
2022-12-25T03:34:49.378Z,100685.40
2022-12-25T03:38:13.333Z,100689.80
2022-12-25T03:41:18.988Z,100693.80
2022-12-25T03:44:37.174Z,100695.40
2022-12-25T03:47:41.201Z,100701.60
2022-12-25T03:50:43.152Z,100698.20
2022-12-25T03:53:42.057Z,100696.20
2022-12-25T03:56:35.551Z,100710.00
2022-12-25T03:59:26.875Z,100708.20
2022-12-25T04:02:18.785Z,100708.20
2022-12-25T04:05:10.309Z,100712.20
2022-12-25T04:08:01.742Z,100719.20
2022-12-25T04:10:53.325Z,100716.80
2022-12-25T04:13:44.771Z,100712.20
2022-12-25T04:16:36.203Z,100712.40
2022-12-25T04:19:28.690Z,100707.20
2022-12-25T04:22:20.141Z,100700.60
2022-12-25T04:25:11.580Z,100701.40
2022-12-25T04:28:03.213Z,100710.20
2022-12-25T04:30:54.456Z,100713.00
2022-12-25T04:33:46.026Z,100714.40
2022-12-25T04:36:20.406Z,100716.60
2022-12-25T04:38:54.337Z,100713.80
2022-12-25T04:41:28.630Z,100718.40
2022-12-25T04:44:02.834Z,100717.20
2022-12-25T04:46:37.242Z,100714.60
2022-12-25T04:49:11.169Z,100716.60
2022-12-25T04:51:44.955Z,100722.40
2022-12-25T04:54:19.273Z,100727.00
2022-12-25T04:56:53.811Z,100742.80
2022-12-25T04:59:28.029Z,100746.60
2022-12-25T05:02:02.052Z,100746.00
2022-12-25T05:04:37.334Z,100747.40
2022-12-25T05:07:11.526Z,100748.80
2022-12-25T05:09:45.547Z,100753.40
2022-12-25T05:12:20.122Z,100749.20
2022-12-25T05:14:54.055Z,100749.60
2022-12-25T05:17:27.974Z,100759.00
2022-12-25T05:20:02.006Z,100764.40
2022-12-25T05:22:36.086Z,100760.40
2022-12-25T05:25:12.622Z,100761.80
2022-12-25T05:27:52.109Z,100768.80
2022-12-25T05:30:28.547Z,100772.40
2022-12-25T05:33:02.520Z,100786.40
2022-12-25T05:35:39.170Z,100784.60
2022-12-25T05:38:13.475Z,100774.80
2022-12-25T05:40:47.583Z,100778.60
2022-12-25T05:43:21.815Z,100786.20
2022-12-25T05:45:55.766Z,100793.00
2022-12-25T05:48:30.438Z,100789.40
2022-12-25T05:51:10.146Z,100789.60
2022-12-25T05:53:46.055Z,100787.00
2022-12-25T05:56:20.471Z,100787.40
2022-12-25T05:58:54.469Z,100794.60
2022-12-25T06:01:31.647Z,100794.80
2022-12-25T06:04:12.141Z,100787.80
2022-12-25T06:06:47.259Z,100789.40
2022-12-25T06:09:21.406Z,100789.40
2022-12-25T06:11:55.519Z,100799.40
2022-12-25T06:14:30.034Z,100800.60
2022-12-25T06:17:04.365Z,100796.60
2022-12-25T06:19:39.153Z,100799.20
2022-12-25T06:22:13.477Z,100817.40
2022-12-25T06:24:47.591Z,100823.60
2022-12-25T06:27:21.905Z,100828.00
2022-12-25T06:29:56.231Z,100822.20
2022-12-25T06:32:30.340Z,100829.80
2022-12-25T06:35:04.258Z,100839.00
2022-12-25T06:37:38.792Z,100844.40
2022-12-25T06:40:14.958Z,100855.20
2022-12-25T06:42:48.628Z,100859.00
2022-12-25T06:45:22.496Z,100856.20
2022-12-25T06:47:56.876Z,100859.60
2022-12-25T06:50:30.698Z,100860.60
2022-12-25T06:53:04.798Z,100868.60
2022-12-25T06:55:38.813Z,100876.40
2022-12-25T06:58:13.123Z,100872.60
2022-12-25T07:00:47.774Z,100862.00
2022-12-25T07:03:24.369Z,100864.40
2022-12-25T07:05:58.967Z,100869.20
2022-12-25T07:08:32.980Z,100866.80
2022-12-25T07:11:07.289Z,100872.00
2022-12-25T07:13:42.825Z,100871.40
2022-12-25T07:16:17.500Z,100865.20
2022-12-25T07:18:51.930Z,100873.60
2022-12-25T07:21:26.140Z,100877.20
2022-12-25T07:24:00.294Z,100881.00
2022-12-25T07:26:34.345Z,100886.80
2022-12-25T07:29:09.066Z,100877.80
2022-12-25T07:31:43.436Z,100878.00
2022-12-25T07:34:19.437Z,100881.60
2022-12-25T07:36:53.273Z,100886.40
2022-12-25T07:39:27.290Z,100890.00
2022-12-25T07:42:01.575Z,100886.20
2022-12-25T07:44:35.560Z,100882.00
2022-12-25T07:47:09.915Z,100885.40
2022-12-25T07:49:43.611Z,100879.20
2022-12-25T07:52:17.580Z,100882.60
2022-12-25T07:54:51.651Z,100873.20
2022-12-25T07:57:25.372Z,100873.00
2022-12-25T07:59:59.607Z,100870.60
2022-12-25T08:02:33.845Z,100886.20
2022-12-25T08:05:10.884Z,100887.40
2022-12-25T08:07:44.685Z,100891.80
2022-12-25T08:10:18.816Z,100888.80
2022-12-25T08:12:52.915Z,100883.60
2022-12-25T08:15:28.631Z,100884.40
2022-12-25T08:18:02.402Z,100883.00
2022-12-25T08:20:36.809Z,100883.40
2022-12-25T08:23:10.742Z,100884.80
2022-12-25T08:25:44.540Z,100880.00
2022-12-25T08:28:18.636Z,100880.20
2022-12-25T08:30:52.384Z,100880.00
2022-12-25T08:33:26.414Z,100885.40
2022-12-25T08:36:07.966Z,100889.80
2022-12-25T08:38:42.399Z,100902.00
2022-12-25T08:41:17.724Z,100903.60
2022-12-25T08:43:51.852Z,100905.80
2022-12-25T08:46:26.134Z,100903.60
2022-12-25T08:49:01.071Z,100906.80
2022-12-25T08:51:37.345Z,100907.80
2022-12-25T08:54:12.078Z,100903.20
2022-12-25T08:56:47.766Z,100908.00
2022-12-25T08:59:22.032Z,100915.80
2022-12-25T09:01:55.858Z,100914.20
2022-12-25T09:04:31.271Z,100916.80
2022-12-25T09:07:05.155Z,100914.40
2022-12-25T09:09:39.307Z,100906.00
2022-12-25T09:12:13.624Z,100906.00
2022-12-25T09:14:47.500Z,100902.40
2022-12-25T09:17:21.649Z,100896.00
2022-12-25T09:19:55.372Z,100889.00
2022-12-25T09:22:29.868Z,100889.80
2022-12-25T09:25:03.849Z,100887.20
2022-12-25T09:27:37.576Z,100882.20
2022-12-25T09:30:13.641Z,100874.20
2022-12-25T09:32:47.427Z,100875.60
2022-12-25T09:35:21.937Z,100881.80
2022-12-25T09:37:55.912Z,100880.00
2022-12-25T09:40:33.467Z,100877.00
2022-12-25T09:43:12.327Z,100865.00
2022-12-25T09:45:47.591Z,100861.20
2022-12-25T09:48:22.209Z,100855.80
2022-12-25T09:51:02.689Z,100861.00
2022-12-25T09:53:44.849Z,100861.80
2022-12-25T09:56:25.881Z,100858.20
2022-12-25T09:59:00.408Z,100858.60
2022-12-25T10:01:50.303Z,100856.00
2022-12-25T10:04:44.207Z,100858.00
2022-12-25T10:07:36.270Z,100851.00
2022-12-25T10:10:35.256Z,100838.00
2022-12-25T10:13:39.577Z,100826.00
2022-12-25T10:16:27.388Z,100816.80
2022-12-25T10:19:21.028Z,100816.80
2022-12-25T10:21:59.730Z,100812.80
2022-12-25T10:24:41.960Z,100813.00
2022-12-25T10:27:24.769Z,100811.60
2022-12-25T10:29:59.918Z,100803.20
2022-12-25T10:32:34.285Z,100798.00
2022-12-25T10:35:13.468Z,100798.20
2022-12-25T10:37:51.294Z,100798.00
2022-12-25T10:40:37.944Z,100790.80
2022-12-25T10:43:20.943Z,100793.40
2022-12-25T10:45:54.804Z,100783.40
2022-12-25T10:48:33.775Z,100789.00
2022-12-25T10:51:08.664Z,100784.20
2022-12-25T10:53:45.407Z,100779.00
2022-12-25T10:56:21.878Z,100779.20
2022-12-25T10:59:07.329Z,100777.20
2022-12-25T11:01:41.566Z,100771.20
2022-12-25T11:04:25.871Z,100771.00
2022-12-25T11:07:07.929Z,100766.60
2022-12-25T11:09:50.003Z,100765.80
2022-12-25T11:12:36.495Z,100758.80
2022-12-25T11:15:38.011Z,100756.60
2022-12-25T11:18:24.430Z,100753.20
2022-12-25T11:21:01.203Z,100741.40
2022-12-25T11:23:36.053Z,100736.00
2022-12-25T11:26:12.412Z,100733.20
2022-12-25T11:28:49.672Z,100731.40
2022-12-25T11:31:29.156Z,100721.80
2022-12-25T11:34:08.254Z,100723.60
2022-12-25T11:36:51.686Z,100726.20
2022-12-25T11:39:30.930Z,100732.60
2022-12-25T11:42:15.342Z,100726.60
2022-12-25T11:44:58.250Z,100724.20
2022-12-25T11:47:43.081Z,100719.20
2022-12-25T11:50:29.971Z,100721.00
2022-12-25T11:53:11.145Z,100722.80
2022-12-25T11:55:54.849Z,100707.40
2022-12-25T11:58:34.544Z,100706.80
2022-12-25T12:01:20.187Z,100709.20
2022-12-25T12:03:54.241Z,100711.60
2022-12-25T12:06:43.944Z,100709.40
2022-12-25T12:09:37.957Z,100724.00
2022-12-25T12:12:21.827Z,100722.00
2022-12-25T12:15:08.293Z,100718.60
2022-12-25T12:17:41.949Z,100716.60
2022-12-25T12:20:34.630Z,100711.60
2022-12-25T12:23:17.645Z,100708.00
2022-12-25T12:25:52.158Z,100698.00
2022-12-25T12:28:29.509Z,100697.20
2022-12-25T12:31:07.976Z,100700.80
2022-12-25T12:33:50.060Z,100699.60
2022-12-25T12:36:35.694Z,100696.40
2022-12-25T12:39:22.011Z,100683.60
2022-12-25T12:41:56.360Z,100678.60
2022-12-25T12:44:36.332Z,100674.60
2022-12-25T12:47:31.345Z,100676.20
2022-12-25T12:50:07.073Z,100680.40
2022-12-25T12:52:42.757Z,100686.00
2022-12-25T12:55:17.008Z,100693.60
2022-12-25T12:58:01.395Z,100695.00
2022-12-25T13:00:50.057Z,100696.20
2022-12-25T13:03:40.741Z,100699.00
2022-12-25T13:06:22.174Z,100696.00
2022-12-25T13:09:14.311Z,100696.20
2022-12-25T13:11:49.015Z,100685.60
2022-12-25T13:14:26.143Z,100676.00
2022-12-25T13:17:00.577Z,100670.00
2022-12-25T13:19:36.054Z,100669.40
2022-12-25T13:22:24.379Z,100666.40
2022-12-25T13:25:06.444Z,100675.00
2022-12-25T13:27:40.351Z,100682.40
2022-12-25T13:30:26.094Z,100688.00
2022-12-25T13:33:00.230Z,100692.40
2022-12-25T13:35:34.338Z,100689.60
2022-12-25T13:38:15.972Z,100691.00
2022-12-25T13:41:15.271Z,100691.40
2022-12-25T13:43:51.089Z,100690.60
2022-12-25T13:46:31.274Z,100689.40
2022-12-25T13:49:13.568Z,100680.60
2022-12-25T13:51:47.526Z,100681.00
2022-12-25T13:54:22.179Z,100675.00
2022-12-25T13:56:58.323Z,100663.40
2022-12-25T13:59:32.033Z,100669.80
2022-12-25T14:02:15.582Z,100662.80
2022-12-25T14:04:49.701Z,100668.00
2022-12-25T14:07:27.251Z,100659.00
2022-12-25T14:10:05.899Z,100665.80
2022-12-25T14:12:39.935Z,100675.20
2022-12-25T14:15:21.666Z,100690.80
2022-12-25T14:17:56.166Z,100685.00
2022-12-25T14:20:35.004Z,100685.00
2022-12-25T14:23:15.994Z,100690.80
2022-12-25T14:25:50.929Z,100698.40
2022-12-25T14:28:32.437Z,100704.80
2022-12-25T14:31:07.370Z,100701.40
2022-12-25T14:33:44.257Z,100697.00
2022-12-25T14:36:18.813Z,100703.00
2022-12-25T14:39:03.435Z,100709.60
2022-12-25T14:41:42.160Z,100708.80
2022-12-25T14:47:21.934Z,100715.20
2022-12-25T14:49:55.882Z,100708.20
2022-12-25T14:52:36.212Z,100703.20
2022-12-25T14:55:22.004Z,100704.60
2022-12-25T14:57:59.430Z,100709.80
2022-12-25T15:00:36.527Z,100712.40
2022-12-25T15:03:24.349Z,100706.20
2022-12-25T15:06:05.348Z,100686.60
2022-12-25T15:08:41.249Z,100688.00
2022-12-25T15:11:14.886Z,100693.80
2022-12-25T15:13:48.608Z,100700.20
2022-12-25T15:16:26.097Z,100707.60
2022-12-25T15:19:01.800Z,100715.40
2022-12-25T15:21:38.864Z,100704.80
2022-12-25T15:24:16.192Z,100681.20
2022-12-25T15:26:50.144Z,100664.00
2022-12-25T15:29:59.690Z,100679.60
2022-12-25T15:32:23.392Z,100700.20
2022-12-25T15:34:57.169Z,100694.20
2022-12-25T15:37:31.227Z,100693.80
2022-12-25T15:40:06.741Z,100695.40
2022-12-25T15:42:41.004Z,100687.60
2022-12-25T15:45:24.236Z,100679.00
2022-12-25T15:47:58.653Z,100678.00
2022-12-25T15:50:36.814Z,100669.80
2022-12-25T15:53:11.312Z,100672.80
2022-12-25T15:55:45.944Z,100671.00
2022-12-25T15:58:19.980Z,100677.20
2022-12-25T16:00:54.940Z,100688.40
2022-12-25T16:03:28.849Z,100682.40
2022-12-25T16:06:05.723Z,100683.00
2022-12-25T16:08:39.814Z,100676.80
2022-12-25T16:11:14.489Z,100670.00
2022-12-25T16:13:48.477Z,100658.20
2022-12-25T16:16:22.827Z,100650.20
2022-12-25T16:18:57.224Z,100635.00
2022-12-25T16:21:39.136Z,100631.80
2022-12-25T16:24:14.188Z,100638.00
2022-12-25T16:26:48.663Z,100634.40
2022-12-25T16:29:22.485Z,100627.00
2022-12-25T16:31:56.456Z,100628.00
2022-12-25T16:34:30.717Z,100631.20
2022-12-25T16:37:05.093Z,100628.80
2022-12-25T16:39:39.296Z,100629.60
2022-12-25T16:42:14.054Z,100622.80
2022-12-25T16:44:48.486Z,100624.20
2022-12-25T16:47:22.570Z,100630.60
2022-12-25T16:49:58.653Z,100632.40
2022-12-25T16:52:33.092Z,100625.60
2022-12-25T16:55:08.757Z,100621.20
2022-12-25T16:57:42.761Z,100602.40
2022-12-25T17:00:19.747Z,100605.00
2022-12-25T17:02:53.992Z,100614.60
2022-12-25T17:05:29.109Z,100615.60
2022-12-25T17:08:03.614Z,100617.00
2022-12-25T17:10:40.884Z,100621.20
2022-12-25T17:13:14.978Z,100633.80
2022-12-25T17:15:50.766Z,100639.00
2022-12-25T17:18:25.070Z,100634.40
2022-12-25T17:20:59.041Z,100618.40
2022-12-25T17:23:32.922Z,100604.80
2022-12-25T17:26:07.349Z,100593.60
2022-12-25T17:28:41.587Z,100584.80
2022-12-25T17:31:16.709Z,100578.80
2022-12-25T17:33:51.046Z,100575.00
2022-12-25T17:36:26.081Z,100583.80
2022-12-25T17:39:01.977Z,100595.20
2022-12-25T17:41:36.277Z,100595.00
2022-12-25T17:44:10.149Z,100600.40
2022-12-25T17:46:44.520Z,100605.40
2022-12-25T17:49:21.873Z,100596.60
2022-12-25T17:51:56.565Z,100591.60
2022-12-25T17:54:30.534Z,100591.40
2022-12-25T17:57:04.430Z,100586.80
2022-12-25T17:59:38.544Z,100581.40
2022-12-25T18:02:13.658Z,100578.20
2022-12-25T18:04:48.275Z,100574.40
2022-12-25T18:07:22.017Z,100567.00
2022-12-25T18:09:57.284Z,100568.60
2022-12-25T18:12:32.599Z,100560.00
2022-12-25T18:15:07.783Z,100560.80
2022-12-25T18:17:41.617Z,100563.80
2022-12-25T18:20:16.271Z,100559.40
2022-12-25T18:22:50.130Z,100541.40
2022-12-25T18:25:24.016Z,100528.00
2022-12-25T18:27:57.798Z,100527.40
2022-12-25T18:30:31.749Z,100524.00
2022-12-25T18:33:05.610Z,100528.60
2022-12-25T18:35:44.463Z,100524.40
2022-12-25T18:38:19.033Z,100519.40
2022-12-25T18:40:54.309Z,100521.40
2022-12-25T18:43:51.433Z,100511.80
2022-12-25T18:46:24.599Z,100517.00
2022-12-25T18:48:59.532Z,100523.80
2022-12-25T18:51:37.105Z,100522.60
2022-12-25T18:54:11.475Z,100512.20
2022-12-25T18:56:50.675Z,100503.60
2022-12-25T18:59:27.076Z,100495.00
2022-12-25T19:02:00.870Z,100491.80
2022-12-25T19:04:34.897Z,100494.80
2022-12-25T19:07:08.823Z,100489.40
2022-12-25T19:09:42.812Z,100483.80
2022-12-25T19:12:17.908Z,100481.60
2022-12-25T19:14:52.082Z,100475.00
2022-12-25T19:17:39.694Z,100470.20
2022-12-25T19:20:20.828Z,100469.20
2022-12-25T19:22:55.466Z,100467.80
2022-12-25T19:25:30.402Z,100465.40
2022-12-25T19:28:04.510Z,100470.00
2022-12-25T19:30:40.401Z,100465.40
2022-12-25T19:33:18.051Z,100456.40
2022-12-25T19:35:55.499Z,100450.20
2022-12-25T19:38:30.568Z,100454.00
2022-12-25T19:41:09.068Z,100447.80
2022-12-25T19:43:45.722Z,100437.80
2022-12-25T19:46:23.456Z,100440.60
2022-12-25T19:48:59.171Z,100440.80
2022-12-25T19:51:37.665Z,100448.00
2022-12-25T19:54:15.245Z,100446.40
2022-12-25T19:56:49.625Z,100440.80
2022-12-25T19:59:24.895Z,100433.40
2022-12-25T20:01:59.157Z,100424.00
2022-12-25T20:04:33.445Z,100416.60
2022-12-25T20:07:07.576Z,100414.40
2022-12-25T20:09:41.992Z,100410.80
2022-12-25T20:12:16.401Z,100405.80
2022-12-25T20:14:50.842Z,100394.60
2022-12-25T20:17:24.841Z,100388.80
2022-12-25T20:19:58.740Z,100387.20
2022-12-25T20:22:32.925Z,100389.40
2022-12-25T20:25:09.811Z,100381.20
2022-12-25T20:27:43.645Z,100373.20
2022-12-25T20:30:18.679Z,100380.80
2022-12-25T20:32:52.621Z,100390.00
2022-12-25T20:35:26.470Z,100385.00
2022-12-25T20:38:00.511Z,100389.20
2022-12-25T20:40:53.044Z,100387.00
2022-12-25T20:43:28.692Z,100394.00
2022-12-25T20:46:05.678Z,100374.20
2022-12-25T20:48:40.353Z,100369.20
2022-12-25T20:51:19.194Z,100364.80
2022-12-25T20:53:53.878Z,100360.40
2022-12-25T20:56:30.378Z,100355.20
2022-12-25T20:59:05.201Z,100344.00
2022-12-25T21:01:39.428Z,100341.40
2022-12-25T21:04:16.528Z,100347.00
2022-12-25T21:06:50.831Z,100355.20
2022-12-25T21:09:24.911Z,100359.60
2022-12-25T21:11:58.815Z,100359.60
2022-12-25T21:14:32.704Z,100354.80
2022-12-25T21:17:06.903Z,100341.40
2022-12-25T21:19:40.973Z,100330.40
2022-12-25T21:22:15.367Z,100335.20
2022-12-25T21:24:52.236Z,100323.20
2022-12-25T21:27:26.956Z,100312.60
2022-12-25T21:30:14.906Z,100294.20
2022-12-25T21:33:07.892Z,100289.40
2022-12-25T21:35:42.600Z,100289.80
2022-12-25T21:38:17.487Z,100285.80
2022-12-25T21:40:51.846Z,100288.60
2022-12-25T21:43:25.774Z,100291.20
2022-12-25T21:46:05.558Z,100288.80
2022-12-25T21:48:41.575Z,100293.60
2022-12-25T21:51:42.406Z,100291.80
2022-12-25T21:54:18.268Z,100296.00
2022-12-25T21:56:52.940Z,100306.20
2022-12-25T21:59:27.607Z,100316.80
2022-12-25T22:02:02.000Z,100329.60
2022-12-25T22:04:38.088Z,100331.60
2022-12-25T22:07:19.848Z,100327.60
2022-12-25T22:09:54.904Z,100330.60
2022-12-25T22:12:46.691Z,100320.60
2022-12-25T22:15:21.008Z,100310.60
2022-12-25T22:18:12.657Z,100309.20
2022-12-25T22:20:47.011Z,100310.40
2022-12-25T22:23:21.658Z,100303.60
2022-12-25T22:25:56.050Z,100299.80
2022-12-25T22:28:30.728Z,100298.60
2022-12-25T22:31:09.097Z,100294.20
2022-12-25T22:33:43.375Z,100293.80
2022-12-25T22:36:17.596Z,100287.00
2022-12-25T22:38:52.528Z,100286.00
2022-12-25T22:41:31.510Z,100288.00
2022-12-25T22:44:17.791Z,100270.00
2022-12-25T22:46:52.292Z,100259.00
2022-12-25T22:49:26.757Z,100260.20
2022-12-25T22:52:01.108Z,100251.60
2022-12-25T22:54:35.997Z,100251.00
2022-12-25T22:57:10.053Z,100246.40
2022-12-25T22:59:44.543Z,100233.00
2022-12-25T23:02:18.876Z,100235.20
2022-12-25T23:04:53.656Z,100239.40
2022-12-25T23:07:27.635Z,100229.40
2022-12-25T23:10:02.377Z,100218.00
2022-12-25T23:12:54.173Z,100224.80
2022-12-25T23:15:29.273Z,100219.80
2022-12-25T23:18:23.980Z,100211.80
2022-12-25T23:21:23.424Z,100214.20
2022-12-25T23:24:14.965Z,100224.00
2022-12-25T23:26:48.783Z,100222.00
2022-12-25T23:29:45.703Z,100226.60
2022-12-25T23:32:24.971Z,100228.40
2022-12-25T23:34:59.390Z,100219.20
2022-12-25T23:37:34.475Z,100203.20
2022-12-25T23:40:11.745Z,100207.60
2022-12-25T23:42:46.962Z,100209.60
2022-12-25T23:45:21.288Z,100211.20
2022-12-25T23:47:55.494Z,100206.40
2022-12-25T23:50:30.485Z,100221.00
2022-12-25T23:53:04.161Z,100220.20
2022-12-25T23:55:38.842Z,100225.40
2022-12-25T23:58:12.765Z,100225.40
